Flugplatz Soest/Bad Sassendorf

Für EDLZ sind keine METAR/TAF Berichte vorhanden.
Es werden die Flugwettermeldungen vom Flugplatz Paderborn Lippstadt in 28 km Entfernung angezeigt.

Bericht für EDLP

vom 22.09. um 07:20 UTC

variable Windrichtung mit 1 kt

Sichtweite 10 km oder mehr

gute Sicht, keine Wolken < 5000 ft, keine CB, keine Wettererscheinungen (CAVOK)

Temperatur 16.0°C

Taupunkt 7.0°C

Luftfeuchtigkeit 55%

Luftdruck 1012 hPa

EDLP 220720Z VRB01KT CAVOK 16/07 Q1012

Prognose für EDLP

vom 22.09. um 05:00 UTC

Zwischen 06:00 UTC und 06:00 UTC

Wind 4 kt aus 180°

Sichtweite 10 km oder mehr

keine signifikanten Wettererscheinungen

keine Wolken


Zwischen 10:00 UTC und 16:00 UTC zeitweise

Wind 5 kt aus 300°

TAF EDLP 220500Z 2206/2306 18004KT CAVOK TEMPO 2210/2216 30005KT
Impressum